Time;durP1;ratioP1;P1;durP2;ratioP2;P2;SDS_P1;SDS_P2;PMS_P1;PMS_P2;Temp;Humidity;BMP_temperature;BMP_pressure;BME280_temperature;BME280_humidity;BME280_pressure;Samples;Min_cycle;Max_cycle;Signal;HPM_P1;HPM_P2
2021/08/04 00:00:23;;;;;;;3.75;3.42;;;18.00;87.30;;;;;;3541427;40;20030;-65
2021/08/04 00:02:49;;;;;;;4.80;4.03;;;18.00;87.20;;;;;;3541968;40;20461;-66
2021/08/04 00:05:15;;;;;;;3.83;3.25;;;18.00;87.30;;;;;;3541033;40;20027;-65
2021/08/04 00:07:41;;;;;;;4.57;3.90;;;18.00;87.40;;;;;;3541422;40;20038;-66
2021/08/04 00:10:07;;;;;;;5.00;3.70;;;18.00;87.80;;;;;;3541300;40;20027;-65
2021/08/04 00:12:32;;;;;;;4.07;3.58;;;18.00;87.80;;;;;;3541220;40;20629;-65
2021/08/04 00:14:58;;;;;;;5.43;4.55;;;18.00;87.70;;;;;;3541793;40;20056;-65
2021/08/04 00:17:23;;;;;;;4.95;4.00;;;18.00;87.70;;;;;;3542504;40;20049;-66
2021/08/04 00:19:49;;;;;;;4.80;4.10;;;18.00;87.70;;;;;;3541214;40;20011;-65
2021/08/04 00:22:15;;;;;;;6.95;4.57;;;18.00;87.90;;;;;;3540774;40;20117;-65
2021/08/04 00:24:41;;;;;;;4.75;4.18;;;18.00;88.00;;;;;;3541350;40;20046;-66
2021/08/04 00:27:06;;;;;;;4.30;3.90;;;18.00;88.10;;;;;;3541498;40;20038;-68
2021/08/04 00:29:32;;;;;;;4.40;4.00;;;18.00;88.10;;;;;;3539641;40;20033;-68
2021/08/04 00:31:59;;;;;;;4.88;4.22;;;18.00;88.30;;;;;;3540902;40;20041;-68
2021/08/04 00:34:25;;;;;;;4.50;3.88;;;18.00;88.30;;;;;;3539389;40;20051;-68
2021/08/04 00:36:51;;;;;;;4.45;4.05;;;18.00;88.00;;;;;;3540740;40;20396;-69
2021/08/04 00:39:17;;;;;;;4.60;3.97;;;18.00;87.80;;;;;;3539894;40;20050;-68
2021/08/04 00:41:43;;;;;;;5.43;4.13;;;18.00;87.60;;;;;;3539079;40;20031;-68
2021/08/04 00:44:09;;;;;;;5.05;3.85;;;18.00;87.70;;;;;;3539665;40;20718;-68
2021/08/04 00:46:40;;;;;;;4.55;4.13;;;18.00;87.70;;;;;;3548325;40;20408;-68
2021/08/04 00:49:06;;;;;;;5.07;4.10;;;17.90;88.00;;;;;;3539861;40;20074;-68
2021/08/04 00:51:32;;;;;;;4.65;3.97;;;17.90;88.30;;;;;;3547520;40;20393;-68
2021/08/04 00:53:58;;;;;;;5.25;4.47;;;17.90;88.40;;;;;;3539552;40;20042;-68
2021/08/04 00:56:23;;;;;;;4.55;4.00;;;17.90;88.80;;;;;;3548199;40;20040;-68
2021/08/04 00:58:49;;;;;;;4.18;3.78;;;17.90;88.90;;;;;;3540474;40;20053;-68
2021/08/04 01:01:27;;;;;;;5.18;4.22;;;17.90;88.80;;;;;;3540655;40;20097;-68
2021/08/04 01:04:01;;;;;;;4.10;3.70;;;17.90;88.60;;;;;;3540698;40;20034;-68
2021/08/04 01:06:56;;;;;;;5.22;4.28;;;17.90;88.50;;;;;;3540263;40;20050;-68
2021/08/04 01:09:27;;;;;;;5.60;4.25;;;17.90;88.70;;;;;;3526660;40;20145;-68
2021/08/04 01:12:05;;;;;;;5.88;4.55;;;17.90;88.80;;;;;;3547352;40;20547;-68
2021/08/04 01:14:34;;;;;;;8.02;4.13;;;17.80;88.80;;;;;;3540605;40;20035;-68
2021/08/04 01:17:03;;;;;;;4.93;4.43;;;17.80;88.90;;;;;;3539586;40;20066;-67
2021/08/04 01:19:47;;;;;;;5.22;4.72;;;17.80;88.90;;;;;;3540952;40;20175;-68
2021/08/04 01:22:21;;;;;;;5.68;3.97;;;17.90;88.90;;;;;;3546952;40;20049;-68
2021/08/04 01:25:13;;;;;;;5.38;4.22;;;17.90;89.10;;;;;;3544824;40;20050;-67
2021/08/04 01:27:50;;;;;;;6.10;4.40;;;17.90;88.70;;;;;;3538668;40;20047;-68
2021/08/04 01:30:18;;;;;;;5.15;4.10;;;17.90;88.90;;;;;;3539256;40;20029;-67
2021/08/04 01:32:45;;;;;;;5.63;5.10;;;17.90;89.10;;;;;;3539000;40;20043;-68
2021/08/04 01:35:11;;;;;;;4.43;3.95;;;17.90;88.80;;;;;;3540172;40;20030;-69
2021/08/04 01:37:40;;;;;;;4.43;3.95;;;17.90;88.40;;;;;;3539567;40;20039;-67
2021/08/04 01:40:07;;;;;;;4.88;4.38;;;17.90;88.40;;;;;;3539676;40;20446;-67
2021/08/04 01:42:35;;;;;;;6.38;4.32;;;17.90;88.40;;;;;;3537561;40;20270;-68
2021/08/04 01:45:02;;;;;;;4.13;3.72;;;17.90;88.70;;;;;;3540450;40;20383;-67
2021/08/04 01:47:30;;;;;;;4.80;3.67;;;17.90;88.70;;;;;;3540531;40;20047;-68
2021/08/04 01:49:57;;;;;;;4.88;3.67;;;17.90;88.90;;;;;;3540137;40;20201;-68
2021/08/04 01:52:24;;;;;;;4.60;4.20;;;17.90;89.20;;;;;;3539015;40;20474;-68
2021/08/04 01:54:51;;;;;;;5.00;4.50;;;17.90;90.00;;;;;;3538595;40;20039;-68
2021/08/04 01:57:17;;;;;;;4.75;4.30;;;17.90;90.10;;;;;;3539429;40;20034;-67
2021/08/04 01:59:43;;;;;;;4.63;4.18;;;17.90;90.00;;;;;;3547004;40;20034;-68
2021/08/04 02:02:21;;;;;;;6.97;4.68;;;17.90;90.10;;;;;;3537011;40;20130;-68
2021/08/04 02:04:48;;;;;;;5.07;4.35;;;17.90;90.10;;;;;;3538165;40;20720;-68
2021/08/04 02:07:26;;;;;;;4.80;4.13;;;17.80;89.90;;;;;;3538686;40;20038;-69
2021/08/04 02:09:57;;;;;;;6.75;4.38;;;17.80;89.70;;;;;;3537716;40;20018;-68
2021/08/04 02:12:23;;;;;;;5.15;4.65;;;17.80;89.90;;;;;;3539628;40;20094;-67
2021/08/04 02:14:56;;;;;;;5.40;4.90;;;17.80;90.00;;;;;;3538415;40;20030;-67
2021/08/04 02:17:31;;;;;;;5.00;4.50;;;17.70;90.10;;;;;;3539124;40;20038;-68
2021/08/04 02:20:17;;;;;;;5.10;4.70;;;17.70;90.30;;;;;;3537226;40;20039;-68
2021/08/04 02:22:50;;;;;;;5.15;4.65;;;17.70;90.40;;;;;;3547801;40;20449;-69
2021/08/04 02:25:21;;;;;;;5.03;4.50;;;17.60;90.70;;;;;;3541418;40;20039;-68
2021/08/04 02:27:49;;;;;;;4.78;4.32;;;17.60;90.50;;;;;;3539729;40;20041;-68
2021/08/04 02:30:18;;;;;;;5.28;4.78;;;17.60;90.70;;;;;;3539784;40;20034;-68
2021/08/04 02:32:45;;;;;;;6.15;4.85;;;17.60;90.60;;;;;;3539657;40;20035;-67
2021/08/04 02:35:11;;;;;;;5.05;4.55;;;17.60;90.70;;;;;;3548027;40;20049;-68
2021/08/04 02:37:38;;;;;;;5.22;4.53;;;17.60;90.80;;;;;;3538205;40;20034;-69
2021/08/04 02:40:05;;;;;;;5.03;4.55;;;17.60;90.90;;;;;;3547852;40;20050;-69
2021/08/04 02:42:33;;;;;;;5.68;5.00;;;17.60;90.80;;;;;;3539774;40;20136;-68
2021/08/04 02:44:59;;;;;;;5.05;4.57;;;17.60;90.80;;;;;;3540013;40;20034;-68
2021/08/04 02:47:26;;;;;;;6.38;4.82;;;17.60;90.60;;;;;;3540694;40;20101;-68
2021/08/04 02:49:51;;;;;;;4.78;4.28;;;17.60;90.70;;;;;;3538035;40;20315;-68
2021/08/04 02:52:18;;;;;;;4.72;4.32;;;17.50;90.70;;;;;;3548545;40;20030;-68
2021/08/04 02:54:46;;;;;;;4.70;4.30;;;17.50;90.70;;;;;;3539554;40;20442;-68
2021/08/04 02:57:13;;;;;;;7.35;4.93;;;17.50;90.80;;;;;;3540972;40;20058;-68
2021/08/04 02:59:39;;;;;;;4.78;4.28;;;17.50;91.00;;;;;;3541120;40;20030;-67
2021/08/04 03:02:05;;;;;;;4.78;4.35;;;17.50;91.10;;;;;;3540582;40;20319;-68
2021/08/04 03:04:30;;;;;;;6.32;4.60;;;17.50;91.10;;;;;;3548395;40;20031;-69
2021/08/04 03:06:56;;;;;;;4.95;4.00;;;17.50;91.20;;;;;;3541838;40;20609;-68
2021/08/04 03:09:22;;;;;;;5.93;4.47;;;17.50;91.10;;;;;;3540883;40;20096;-68
2021/08/04 03:11:48;;;;;;;5.22;4.30;;;17.50;91.10;;;;;;3541746;40;20030;-68
2021/08/04 03:14:13;;;;;;;5.60;4.30;;;17.50;91.10;;;;;;3541158;40;20031;-68
2021/08/04 03:16:39;;;;;;;4.38;3.90;;;17.50;91.00;;;;;;3549565;40;20035;-68
2021/08/04 03:19:05;;;;;;;4.40;4.00;;;17.50;90.90;;;;;;3541780;40;20409;-68
2021/08/04 03:21:31;;;;;;;5.28;4.05;;;17.50;90.90;;;;;;3542159;40;20046;-68
2021/08/04 03:23:56;;;;;;;5.35;4.47;;;17.50;90.80;;;;;;3542518;40;20033;-68
2021/08/04 03:26:22;;;;;;;4.88;4.20;;;17.50;90.60;;;;;;3540138;40;20038;-68
2021/08/04 03:28:48;;;;;;;5.05;3.88;;;17.50;90.70;;;;;;3542243;40;20224;-68
2021/08/04 03:31:14;;;;;;;6.30;4.07;;;17.40;90.20;;;;;;3541246;40;20038;-68
2021/08/04 03:33:40;;;;;;;5.28;4.00;;;17.50;90.30;;;;;;3541820;40;20762;-68
2021/08/04 03:36:06;;;;;;;7.47;4.15;;;17.40;90.50;;;;;;3541913;40;20030;-68
2021/08/04 03:38:31;;;;;;;4.13;3.72;;;17.50;90.60;;;;;;3542370;40;20424;-68
2021/08/04 03:40:57;;;;;;;5.35;3.90;;;17.50;90.40;;;;;;3541407;40;20034;-68
2021/08/04 03:43:23;;;;;;;5.82;3.90;;;17.40;90.50;;;;;;3541612;40;20100;-68
2021/08/04 03:45:49;;;;;;;4.07;3.70;;;17.40;90.70;;;;;;3542047;40;20136;-68
2021/08/04 03:48:14;;;;;;;4.47;3.67;;;17.40;90.90;;;;;;3541530;40;20039;-69
2021/08/04 03:50:40;;;;;;;6.47;3.75;;;17.40;90.90;;;;;;3541846;40;20022;-68
2021/08/04 03:53:06;;;;;;;4.60;3.55;;;17.30;90.60;;;;;;3541677;40;20046;-68
2021/08/04 03:55:31;;;;;;;3.88;3.53;;;17.30;90.80;;;;;;3541525;40;20429;-68
2021/08/04 03:57:57;;;;;;;6.25;3.70;;;17.30;90.90;;;;;;3541892;40;20028;-68
2021/08/04 04:00:23;;;;;;;4.88;3.97;;;17.30;91.00;;;;;;3541756;40;20059;-68
2021/08/04 04:02:48;;;;;;;5.28;4.05;;;17.30;90.90;;;;;;3541619;40;20030;-68
2021/08/04 04:05:14;;;;;;;5.38;3.50;;;17.30;90.90;;;;;;3541148;40;20225;-68
2021/08/04 04:07:40;;;;;;;4.32;3.90;;;17.30;90.90;;;;;;3541885;40;20313;-68
2021/08/04 04:10:07;;;;;;;6.63;3.88;;;17.30;91.00;;;;;;3540950;40;20046;-67
2021/08/04 04:12:34;;;;;;;4.43;4.03;;;17.30;91.00;;;;;;3541935;40;20035;-68
2021/08/04 04:14:59;;;;;;;5.00;3.92;;;17.20;91.10;;;;;;3541674;40;20305;-68
2021/08/04 04:17:25;;;;;;;4.32;3.92;;;17.20;91.20;;;;;;3541539;40;20084;-67
2021/08/04 04:19:51;;;;;;;5.68;4.03;;;17.20;91.30;;;;;;3541232;40;20030;-68
2021/08/04 04:22:17;;;;;;;6.00;4.18;;;17.20;91.50;;;;;;3540586;40;20053;-69
2021/08/04 04:24:43;;;;;;;4.80;4.30;;;17.20;91.50;;;;;;3541707;40;20061;-67
2021/08/04 04:27:09;;;;;;;4.57;4.18;;;17.20;91.70;;;;;;3540853;40;20025;-67
2021/08/04 04:29:34;;;;;;;5.38;3.78;;;17.20;91.70;;;;;;3541642;40;20030;-68
2021/08/04 04:32:00;;;;;;;4.43;4.03;;;17.20;91.70;;;;;;3541187;40;20042;-67
2021/08/04 04:34:26;;;;;;;4.30;3.75;;;17.20;91.80;;;;;;3541150;40;20038;-67
2021/08/04 04:36:51;;;;;;;5.63;3.80;;;17.20;91.90;;;;;;3540043;40;20038;-67
2021/08/04 04:39:17;;;;;;;5.18;4.60;;;17.20;91.90;;;;;;3540812;40;20030;-68
2021/08/04 04:41:42;;;;;;;4.60;4.20;;;17.20;91.90;;;;;;3540544;40;20133;-68
2021/08/04 04:44:08;;;;;;;4.57;4.10;;;17.20;91.70;;;;;;3542021;40;20038;-70
2021/08/04 04:46:34;;;;;;;4.85;4.07;;;17.20;91.80;;;;;;3540942;40;20034;-68
2021/08/04 04:48:59;;;;;;;4.45;4.05;;;17.20;91.80;;;;;;3541697;40;20729;-67
2021/08/04 04:51:25;;;;;;;4.30;3.80;;;17.20;91.90;;;;;;3540725;40;20157;-68
2021/08/04 04:53:51;;;;;;;4.50;3.78;;;17.30;92.00;;;;;;3541505;40;20022;-68
2021/08/04 04:56:17;;;;;;;5.53;4.00;;;17.30;92.00;;;;;;3539035;40;20038;-67
2021/08/04 04:58:43;;;;;;;5.07;4.20;;;17.30;92.00;;;;;;3547986;40;20030;-68
2021/08/04 05:01:08;;;;;;;4.45;3.80;;;17.40;92.10;;;;;;3541452;40;20037;-67
2021/08/04 05:03:34;;;;;;;4.93;4.00;;;17.40;92.10;;;;;;3540720;40;20027;-67
2021/08/04 05:06:00;;;;;;;5.60;4.32;;;17.50;92.10;;;;;;3541161;40;20408;-68
2021/08/04 05:08:25;;;;;;;4.78;3.90;;;17.50;92.10;;;;;;3540076;40;20059;-68
2021/08/04 05:10:51;;;;;;;4.50;4.10;;;17.50;92.10;;;;;;3540628;40;20711;-67
2021/08/04 05:13:17;;;;;;;5.40;4.25;;;17.60;92.10;;;;;;3540378;40;20336;-68
2021/08/04 05:15:43;;;;;;;5.15;4.00;;;17.60;92.00;;;;;;3540586;40;20046;-68
2021/08/04 05:18:09;;;;;;;7.55;4.53;;;17.60;92.10;;;;;;3540849;40;20035;-68
2021/08/04 05:20:35;;;;;;;5.03;4.18;;;17.70;92.20;;;;;;3540234;40;20111;-68
2021/08/04 05:23:00;;;;;;;5.60;4.22;;;17.70;92.10;;;;;;3540318;40;20038;-68
2021/08/04 05:25:28;;;;;;;6.57;4.38;;;17.80;92.10;;;;;;3540498;40;20035;-68
2021/08/04 05:27:53;;;;;;;4.90;4.50;;;17.80;92.10;;;;;;3540410;40;20027;-67
2021/08/04 05:30:19;;;;;;;4.97;4.47;;;17.90;92.10;;;;;;3541085;40;20019;-68
2021/08/04 05:32:45;;;;;;;5.10;4.70;;;18.00;92.10;;;;;;3540140;40;20034;-68
2021/08/04 05:35:11;;;;;;;4.53;4.13;;;18.00;91.90;;;;;;3540640;40;20027;-67
2021/08/04 05:37:37;;;;;;;4.88;4.38;;;18.10;91.90;;;;;;3540466;40;20721;-67
2021/08/04 05:40:04;;;;;;;5.40;4.80;;;18.10;91.90;;;;;;3540359;40;20023;-67
2021/08/04 05:42:30;;;;;;;5.22;4.72;;;18.10;91.80;;;;;;3539593;40;20049;-67
2021/08/04 05:44:56;;;;;;;4.80;4.35;;;18.10;91.80;;;;;;3539549;40;20030;-68
2021/08/04 05:47:21;;;;;;;5.03;4.53;;;18.20;91.80;;;;;;3540274;40;20721;-67
2021/08/04 05:49:48;;;;;;;7.85;4.63;;;18.20;91.60;;;;;;3539868;40;20135;-68
2021/08/04 05:52:14;;;;;;;5.32;4.82;;;18.20;91.70;;;;;;3540232;40;20120;-68
2021/08/04 05:54:41;;;;;;;5.72;5.13;;;18.30;91.70;;;;;;3541082;40;20136;-66
2021/08/04 05:57:07;;;;;;;5.50;5.00;;;18.30;91.60;;;;;;3539478;40;20034;-70
2021/08/04 05:59:32;;;;;;;5.78;5.18;;;18.30;91.60;;;;;;3540447;40;20713;-69
2021/08/04 06:01:58;;;;;;;5.45;4.95;;;18.30;91.40;;;;;;3538189;40;20035;-69
2021/08/04 06:04:24;;;;;;;5.80;5.20;;;18.30;91.40;;;;;;3539951;40;20043;-69
2021/08/04 06:06:50;;;;;;;5.57;4.95;;;18.30;91.40;;;;;;3539466;40;20867;-70
2021/08/04 06:09:15;;;;;;;6.13;5.53;;;18.40;91.50;;;;;;3539834;40;20115;-71
2021/08/04 06:11:41;;;;;;;6.00;5.03;;;18.50;91.50;;;;;;3539764;40;20035;-69
2021/08/04 06:14:07;;;;;;;5.80;5.22;;;18.50;91.50;;;;;;3541411;40;20030;-70
2021/08/04 06:16:33;;;;;;;6.25;5.65;;;18.50;91.60;;;;;;3540869;40;20058;-71
2021/08/04 06:18:58;;;;;;;5.50;5.00;;;18.60;91.60;;;;;;3542086;40;20042;-70
2021/08/04 06:21:26;;;;;;;5.82;5.22;;;18.70;91.60;;;;;;3541063;40;20042;-70
2021/08/04 06:23:53;;;;;;;6.13;5.00;;;18.70;90.90;;;;;;3543034;40;20038;-70
2021/08/04 06:26:19;;;;;;;7.50;5.47;;;18.80;91.00;;;;;;3543602;40;20019;-70
2021/08/04 06:28:44;;;;;;;6.93;5.28;;;18.80;91.00;;;;;;3542429;40;20038;-70
2021/08/04 06:31:11;;;;;;;5.85;5.10;;;18.80;90.90;;;;;;3542627;40;20030;-70
2021/08/04 06:33:37;;;;;;;8.80;5.88;;;18.90;90.80;;;;;;3542701;40;20336;-70
2021/08/04 06:36:03;;;;;;;7.00;5.88;;;18.90;90.60;;;;;;3542765;40;20045;-71
2021/08/04 06:38:29;;;;;;;5.90;5.30;;;19.00;90.30;;;;;;3543117;40;20402;-70
2021/08/04 06:40:55;;;;;;;8.32;5.63;;;19.00;90.30;;;;;;3543396;40;20038;-73
2021/08/04 06:43:22;;;;;;;7.03;5.82;;;19.10;90.40;;;;;;3543836;40;20034;-71
2021/08/04 06:45:48;;;;;;;7.50;6.40;;;19.10;89.40;;;;;;3543884;40;20043;-69
2021/08/04 06:48:14;;;;;;;6.88;5.30;;;19.20;87.90;;;;;;3544062;40;20057;-69
2021/08/04 06:50:40;;;;;;;6.38;5.72;;;19.20;88.40;;;;;;3543764;40;20057;-70
2021/08/04 06:53:06;;;;;;;6.53;5.88;;;19.20;88.90;;;;;;3543255;40;20107;-70
2021/08/04 06:55:32;;;;;;;6.93;5.78;;;19.30;89.20;;;;;;3543707;40;20026;-70
2021/08/04 06:57:57;;;;;;;5.85;5.28;;;19.40;88.70;;;;;;3544138;40;20023;-70
2021/08/04 07:00:23;;;;;;;6.82;5.65;;;19.40;88.60;;;;;;3543774;40;20033;-71
2021/08/04 07:02:49;;;;;;;9.30;6.10;;;19.50;88.80;;;;;;3546337;40;20070;-70
2021/08/04 07:05:18;;;;;;;5.90;5.35;;;19.60;88.40;;;;;;3544144;40;20037;-70
2021/08/04 07:07:44;;;;;;;6.53;5.82;;;19.70;88.70;;;;;;3543803;40;20673;-70
2021/08/04 07:10:13;;;;;;;8.77;5.63;;;19.70;87.90;;;;;;3541224;40;20038;-69
2021/08/04 07:12:39;;;;;;;5.93;5.15;;;19.80;87.50;;;;;;3540779;40;20034;-69
2021/08/04 07:15:06;;;;;;;6.43;5.70;;;19.90;88.00;;;;;;3540560;40;20077;-69
2021/08/04 07:17:44;;;;;;;7.28;6.53;;;19.90;87.40;;;;;;3539756;40;20245;-70
2021/08/04 07:20:12;;;;;;;6.85;5.60;;;19.90;85.40;;;;;;3537273;40;20383;-69
2021/08/04 07:22:38;;;;;;;6.47;4.82;;;20.00;86.10;;;;;;3540249;40;20047;-71
2021/08/04 07:25:03;;;;;;;6.38;5.78;;;20.00;86.30;;;;;;3541212;40;20037;-70
2021/08/04 07:27:29;;;;;;;6.30;5.72;;;20.00;86.40;;;;;;3541307;40;20086;-71
2021/08/04 07:29:55;;;;;;;6.65;5.38;;;20.00;85.80;;;;;;3541363;40;20030;-70
2021/08/04 07:32:21;;;;;;;6.35;5.57;;;20.00;86.20;;;;;;3541179;40;20034;-76
2021/08/04 07:34:46;;;;;;;7.10;6.40;;;20.00;86.70;;;;;;3539997;40;20352;-76
2021/08/04 07:37:12;;;;;;;7.40;5.72;;;20.10;86.10;;;;;;3541626;40;20031;-68
2021/08/04 07:39:38;;;;;;;8.25;6.18;;;20.10;86.70;;;;;;3531933;40;20030;-70
2021/08/04 07:42:03;;;;;;;6.18;5.57;;;20.10;86.50;;;;;;3541113;40;20540;-69
2021/08/04 07:44:29;;;;;;;6.25;5.63;;;20.10;87.00;;;;;;3541254;40;20423;-69
2021/08/04 07:46:55;;;;;;;6.47;5.88;;;20.20;85.40;;;;;;3548347;40;20041;-70
2021/08/04 07:49:21;;;;;;;5.80;5.30;;;20.20;85.60;;;;;;3541452;40;20034;-70
2021/08/04 07:51:47;;;;;;;6.40;5.78;;;20.20;86.40;;;;;;3540529;40;20053;-70
2021/08/04 07:54:12;;;;;;;7.05;5.80;;;20.30;86.50;;;;;;3541234;40;20471;-70
2021/08/04 07:56:38;;;;;;;7.40;6.10;;;20.30;84.90;;;;;;3541009;40;20132;-69
2021/08/04 07:59:04;;;;;;;6.93;6.20;;;20.40;84.40;;;;;;3541373;40;20549;-70
2021/08/04 08:01:31;;;;;;;6.32;5.65;;;20.50;83.90;;;;;;3540802;40;20089;-69
2021/08/04 08:03:57;;;;;;;6.72;6.10;;;20.50;84.70;;;;;;3548012;40;20030;-69
2021/08/04 08:06:23;;;;;;;6.75;6.05;;;20.60;83.10;;;;;;3541212;40;20030;-70
2021/08/04 08:08:48;;;;;;;6.00;5.50;;;20.60;83.70;;;;;;3539113;40;20431;-69
2021/08/04 08:11:14;;;;;;;7.30;6.57;;;20.70;84.20;;;;;;3541142;40;20572;-70
2021/08/04 08:13:39;;;;;;;6.15;5.55;;;20.80;84.00;;;;;;3541617;40;20662;-70
2021/08/04 08:16:05;;;;;;;10.10;6.03;;;21.00;81.30;;;;;;3540716;40;20477;-70
2021/08/04 08:18:32;;;;;;;6.47;5.53;;;21.00;80.00;;;;;;3541279;40;20033;-70
2021/08/04 08:20:58;;;;;;;6.60;5.43;;;21.10;79.40;;;;;;3540834;40;20061;-70
2021/08/04 08:23:23;;;;;;;6.22;5.63;;;21.20;80.00;;;;;;3540969;40;20038;-69
2021/08/04 08:25:49;;;;;;;6.15;5.57;;;21.30;79.10;;;;;;3540532;40;20038;-69
2021/08/04 08:28:16;;;;;;;6.07;5.47;;;21.40;77.20;;;;;;3540463;40;20042;-70
2021/08/04 08:30:42;;;;;;;6.45;5.85;;;21.70;78.80;;;;;;3540534;40;20046;-72
2021/08/04 08:33:08;;;;;;;6.70;6.00;;;21.90;76.50;;;;;;3540239;40;20049;-71
2021/08/04 08:35:33;;;;;;;6.45;5.85;;;22.00;77.50;;;;;;3540966;40;20026;-70
2021/08/04 08:38:00;;;;;;;7.30;5.93;;;22.00;74.50;;;;;;3540881;40;20136;-72
2021/08/04 08:40:26;;;;;;;5.30;4.90;;;22.10;75.90;;;;;;3540931;40;20030;-71
2021/08/04 08:42:53;;;;;;;5.97;5.38;;;22.20;76.20;;;;;;3541053;40;20039;-71
2021/08/04 08:45:19;;;;;;;5.82;5.35;;;22.10;74.00;;;;;;3538912;40;20037;-70
2021/08/04 08:47:45;;;;;;;6.25;5.55;;;22.10;74.20;;;;;;3541227;40;20026;-70
2021/08/04 08:50:13;;;;;;;7.68;5.28;;;22.20;73.20;;;;;;3540935;40;20031;-70
2021/08/04 08:52:39;;;;;;;6.50;5.30;;;22.20;73.90;;;;;;3539487;40;20638;-71
2021/08/04 08:55:07;;;;;;;6.28;5.65;;;22.30;74.30;;;;;;3540777;40;20112;-71
2021/08/04 08:57:33;;;;;;;6.10;5.50;;;22.40;73.90;;;;;;3538741;40;20034;-70
2021/08/04 08:59:59;;;;;;;7.40;5.45;;;22.60;74.20;;;;;;3539078;40;20124;-70
2021/08/04 09:02:26;;;;;;;5.90;5.13;;;22.80;70.50;;;;;;3539882;40;20038;-71
2021/08/04 09:05:09;;;;;;;5.85;4.53;;;22.80;72.90;;;;;;3539176;40;20351;-71
2021/08/04 09:07:40;;;;;;;6.10;4.53;;;22.80;71.30;;;;;;3538478;40;20412;-71
2021/08/04 09:13:53;;;;;;;4.95;4.55;;;22.80;70.70;;;;;;3540966;40;20467;-71
2021/08/04 09:16:19;;;;;;;4.72;4.20;;;22.80;71.90;;;;;;3538723;40;20074;-71
2021/08/04 09:18:53;;;;;;;4.50;4.10;;;22.80;71.40;;;;;;3539113;40;20046;-71
2021/08/04 09:21:19;;;;;;;4.70;4.30;;;22.80;70.40;;;;;;3534746;40;20050;-69
2021/08/04 09:23:48;;;;;;;4.40;4.00;;;22.90;74.30;;;;;;3539409;40;20407;-71
2021/08/04 09:26:19;;;;;;;4.43;4.03;;;23.00;68.10;;;;;;3539912;40;20463;-71
2021/08/04 09:29:05;;;;;;;5.55;4.20;;;23.10;69.00;;;;;;3539504;40;20037;-71
2021/08/04 09:31:40;;;;;;;4.25;3.65;;;23.20;70.90;;;;;;3540080;40;20039;-70
2021/08/04 09:34:28;;;;;;;4.40;3.97;;;23.40;65.50;;;;;;3540637;40;20116;-70
2021/08/04 09:37:09;;;;;;;5.10;4.00;;;23.40;67.20;;;;;;3540923;40;20423;-72
2021/08/04 09:39:40;;;;;;;4.93;4.30;;;23.50;68.90;;;;;;3540858;40;20474;-72
2021/08/04 09:42:06;;;;;;;5.13;3.90;;;23.40;68.50;;;;;;3541178;40;20448;-70
2021/08/04 09:44:32;;;;;;;5.18;3.70;;;23.50;68.10;;;;;;3540793;40;20778;-71
2021/08/04 09:47:12;;;;;;;4.55;4.15;;;23.40;65.80;;;;;;3540453;40;20102;-71
2021/08/04 09:49:43;;;;;;;4.88;4.38;;;23.50;65.40;;;;;;3539297;40;20426;-70
2021/08/04 09:52:10;;;;;;;4.25;3.83;;;23.70;63.40;;;;;;3540392;40;20065;-71
2021/08/04 09:54:37;;;;;;;3.60;3.30;;;23.80;65.90;;;;;;3542303;40;20030;-71
2021/08/04 09:57:03;;;;;;;3.80;3.45;;;23.80;64.10;;;;;;3541496;40;20042;-71
2021/08/04 09:59:29;;;;;;;4.15;3.75;;;23.80;65.60;;;;;;3541142;40;20030;-71
2021/08/04 10:01:56;;;;;;;3.50;3.15;;;23.90;65.90;;;;;;3541676;40;20502;-71
2021/08/04 10:04:22;;;;;;;4.30;3.30;;;24.00;64.90;;;;;;3539757;40;20022;-71
2021/08/04 10:06:48;;;;;;;4.53;3.15;;;24.10;65.30;;;;;;3541538;40;20031;-70
2021/08/04 10:09:16;;;;;;;3.83;3.30;;;24.10;63.20;;;;;;3541773;40;20400;-70
2021/08/04 10:11:47;;;;;;;3.80;3.50;;;24.00;61.70;;;;;;3540857;40;20038;-71
2021/08/04 10:14:17;;;;;;;4.82;4.10;;;23.80;63.40;;;;;;3541732;40;20581;-71
2021/08/04 10:16:45;;;;;;;3.38;3.08;;;23.80;66.80;;;;;;3541552;40;20031;-72
2021/08/04 10:19:11;;;;;;;3.97;3.58;;;23.70;64.40;;;;;;3541067;40;20034;-71
2021/08/04 10:21:40;;;;;;;5.13;3.20;;;23.70;65.30;;;;;;3540587;40;20054;-71
2021/08/04 10:24:06;;;;;;;5.10;3.10;;;23.50;63.10;;;;;;3541459;40;20046;-70
2021/08/04 10:26:34;;;;;;;6.15;3.30;;;23.40;64.20;;;;;;3541262;40;20715;-70
2021/08/04 10:29:01;;;;;;;4.18;3.30;;;23.40;65.40;;;;;;3540929;40;20146;-70
2021/08/04 10:31:27;;;;;;;4.38;3.20;;;23.30;67.60;;;;;;3540855;40;20039;-75
2021/08/04 10:33:57;;;;;;;3.15;2.85;;;23.10;67.90;;;;;;3540273;40;20049;-68
2021/08/04 10:36:29;;;;;;;2.83;2.30;;;22.90;64.10;;;;;;3539702;40;20027;-72
2021/08/04 10:38:59;;;;;;;3.78;2.78;;;22.70;64.30;;;;;;3541708;40;20038;-68
2021/08/04 10:41:28;;;;;;;3.45;3.03;;;22.50;64.40;;;;;;3540349;40;20038;-68
2021/08/04 10:44:03;;;;;;;3.90;3.20;;;22.50;65.50;;;;;;3539581;40;20035;-69
2021/08/04 10:46:31;;;;;;;5.25;2.90;;;22.50;68.60;;;;;;3540443;40;20043;-68
2021/08/04 10:49:06;;;;;;;3.53;2.60;;;22.70;64.50;;;;;;3534754;40;20039;-69
2021/08/04 10:51:42;;;;;;;3.30;2.72;;;22.60;64.10;;;;;;3538218;40;20069;-72
2021/08/04 10:54:14;;;;;;;3.10;2.42;;;22.70;68.20;;;;;;3540420;40;20386;-70
2021/08/04 10:56:43;;;;;;;4.50;3.03;;;22.70;63.90;;;;;;3540495;40;20034;-70
2021/08/04 10:59:08;;;;;;;4.43;2.63;;;22.60;67.60;;;;;;3540449;40;20423;-70
2021/08/04 11:01:35;;;;;;;2.88;2.55;;;22.70;69.00;;;;;;3541649;40;20038;-70
2021/08/04 11:04:01;;;;;;;3.83;2.80;;;22.60;65.60;;;;;;3541090;40;20101;-70
2021/08/04 11:06:26;;;;;;;3.50;2.83;;;22.60;64.90;;;;;;3547700;40;20105;-70
2021/08/04 11:09:11;;;;;;;3.08;2.63;;;22.70;66.10;;;;;;3541651;40;20038;-70
2021/08/04 11:11:52;;;;;;;2.92;2.55;;;22.70;64.60;;;;;;3541422;40;20082;-72
2021/08/04 11:14:50;;;;;;;3.80;2.80;;;22.70;67.20;;;;;;3541706;40;20424;-72
2021/08/04 11:17:30;;;;;;;3.38;2.80;;;22.60;70.80;;;;;;3541725;40;20034;-69
2021/08/04 11:22:39;;;;;;;3.78;2.83;;;22.50;67.80;;;;;;3541034;40;20029;-70
2021/08/04 11:25:31;;;;;;;3.30;3.00;;;22.40;68.00;;;;;;3546749;40;20034;-71
2021/08/04 11:27:58;;;;;;;3.45;2.90;;;22.30;71.60;;;;;;3540749;40;20159;-70
2021/08/04 11:30:30;;;;;;;3.22;2.92;;;22.30;73.30;;;;;;3541001;40;20031;-72
2021/08/04 11:33:18;;;;;;;3.67;2.95;;;22.20;75.50;;;;;;3540527;40;20096;-71
2021/08/04 11:36:01;;;;;;;2.72;2.50;;;22.20;72.90;;;;;;3540777;40;20035;-72
2021/08/04 11:38:55;;;;;;;2.13;1.92;;;22.20;74.70;;;;;;3539724;40;20022;-71
2021/08/04 11:41:44;;;;;;;4.80;2.53;;;22.20;69.80;;;;;;3540081;40;20038;-71
2021/08/04 11:44:11;;;;;;;4.05;2.53;;;22.20;67.20;;;;;;3540457;40;20027;-71
2021/08/04 11:46:50;;;;;;;3.33;2.15;;;22.10;68.60;;;;;;3540616;40;20738;-71
2021/08/04 11:49:24;;;;;;;7.28;2.72;;;22.10;69.50;;;;;;3541509;40;20038;-72
2021/08/04 11:51:53;;;;;;;2.72;2.47;;;22.10;70.30;;;;;;3539844;40;20042;-72
2021/08/04 11:54:32;;;;;;;3.13;2.63;;;22.00;71.10;;;;;;3542071;40;20035;-72
2021/08/04 11:56:58;;;;;;;3.95;2.78;;;21.90;72.20;;;;;;3547042;40;20498;-72
2021/08/04 11:59:24;;;;;;;5.47;2.97;;;21.80;72.60;;;;;;3542200;40;20101;-71
2021/08/04 12:01:59;;;;;;;3.63;2.88;;;21.70;74.60;;;;;;3541691;40;20315;-70
2021/08/04 12:04:25;;;;;;;3.53;2.90;;;21.60;75.60;;;;;;3541972;40;20042;-70
2021/08/04 12:07:03;;;;;;;4.53;2.88;;;21.50;77.60;;;;;;3542424;40;20542;-71
2021/08/04 12:09:39;;;;;;;4.35;2.83;;;21.40;76.70;;;;;;3541609;40;20116;-71
2021/08/04 12:12:11;;;;;;;4.97;3.10;;;21.20;79.20;;;;;;3541417;40;20034;-71
2021/08/04 12:14:37;;;;;;;3.17;2.88;;;21.30;78.40;;;;;;3539006;40;20038;-71
2021/08/04 12:17:04;;;;;;;4.95;2.85;;;21.20;79.30;;;;;;3539850;40;20411;-71
2021/08/04 12:19:33;;;;;;;5.68;3.05;;;21.30;78.50;;;;;;3541479;40;20030;-71
2021/08/04 12:22:00;;;;;;;2.90;2.55;;;21.40;79.60;;;;;;3538475;40;20420;-71
2021/08/04 12:24:26;;;;;;;3.53;2.58;;;21.50;78.50;;;;;;3540118;40;20034;-71
2021/08/04 12:26:53;;;;;;;4.70;2.60;;;21.60;78.40;;;;;;3541068;40;20030;-72
2021/08/04 12:29:24;;;;;;;3.03;2.72;;;21.70;77.70;;;;;;3541406;40;20042;-75
2021/08/04 12:32:20;;;;;;;4.13;2.67;;;21.80;74.00;;;;;;3547652;40;20042;-71
2021/08/04 12:34:56;;;;;;;2.42;2.22;;;21.80;75.40;;;;;;3538870;40;20031;-71
2021/08/04 12:37:22;;;;;;;3.90;2.80;;;21.80;76.50;;;;;;3540307;40;20046;-71
2021/08/04 12:39:49;;;;;;;3.33;2.83;;;21.90;79.40;;;;;;3540855;40;20030;-70
2021/08/04 12:42:18;;;;;;;2.80;2.55;;;22.00;79.00;;;;;;3540711;40;20048;-71
2021/08/04 12:44:44;;;;;;;3.20;2.90;;;22.10;77.90;;;;;;3540710;40;20030;-71
2021/08/04 12:47:15;;;;;;;3.10;2.55;;;22.20;76.00;;;;;;3540850;40;20057;-71
2021/08/04 12:49:42;;;;;;;4.20;2.70;;;22.30;75.80;;;;;;3547263;40;20022;-71
2021/08/04 12:52:08;;;;;;;4.30;2.38;;;22.40;74.50;;;;;;3541155;40;20026;-70
2021/08/04 12:54:35;;;;;;;2.38;2.10;;;22.40;71.00;;;;;;3541326;40;20085;-71
2021/08/04 12:57:16;;;;;;;2.20;2.00;;;22.40;72.10;;;;;;3540774;40;20061;-71
2021/08/04 12:59:43;;;;;;;3.17;2.30;;;22.50;73.60;;;;;;3541057;40;20039;-71